Time;durP1;ratioP1;P1;durP2;ratioP2;P2;SDS_P1;SDS_P2;PMS_P1;PMS_P2;Temp;Humidity;BMP_temperature;BMP_pressure;BME280_temperature;BME280_humidity;BME280_pressure;Samples;Min_cycle;Max_cycle;Signal;HPM_P1;HPM_P2
2021/01/06 00:01:27;;;;;;;19.83;14.70;;;22.30;51.20;;;;;;4998515;28;20030;-67
2021/01/06 00:03:53;;;;;;;21.98;15.93;;;22.40;51.30;;;;;;5008247;28;20030;-67
2021/01/06 00:06:25;;;;;;;20.30;14.60;;;22.30;51.20;;;;;;5011445;28;20136;-68
2021/01/06 00:08:51;;;;;;;19.73;13.73;;;22.40;51.40;;;;;;5001808;28;20333;-69
2021/01/06 00:11:17;;;;;;;19.27;14.77;;;22.30;51.30;;;;;;5013240;28;20394;-67
2021/01/06 00:13:45;;;;;;;18.52;14.23;;;22.30;51.40;;;;;;4999985;28;20072;-67
2021/01/06 00:16:11;;;;;;;19.50;14.73;;;22.30;51.40;;;;;;5000746;28;20044;-67
2021/01/06 00:18:38;;;;;;;18.45;14.70;;;22.30;51.50;;;;;;5003484;28;20025;-67
2021/01/06 00:21:05;;;;;;;18.83;14.60;;;22.30;51.60;;;;;;5010424;28;20116;-66
2021/01/06 00:23:30;;;;;;;20.00;15.02;;;22.30;51.60;;;;;;5006649;28;20041;-67
2021/01/06 00:25:58;;;;;;;18.70;13.55;;;22.20;51.60;;;;;;5001609;28;20448;-67
2021/01/06 00:28:25;;;;;;;18.08;13.68;;;22.20;51.60;;;;;;5014383;28;20119;-67
2021/01/06 00:30:56;;;;;;;17.83;13.27;;;22.20;51.70;;;;;;5010284;28;20049;-67
2021/01/06 00:33:30;;;;;;;18.67;14.13;;;22.20;51.70;;;;;;5005421;28;20034;-67
2021/01/06 00:36:04;;;;;;;17.02;13.18;;;22.20;51.70;;;;;;5017026;28;20029;-67
2021/01/06 00:38:31;;;;;;;17.80;13.07;;;22.20;51.80;;;;;;5008197;28;20250;-66
2021/01/06 00:40:59;;;;;;;16.40;12.30;;;22.10;51.70;;;;;;5016489;28;20586;-67
2021/01/06 00:43:26;;;;;;;16.02;11.63;;;22.10;51.80;;;;;;5002239;28;20057;-67
2021/01/06 00:45:53;;;;;;;17.58;12.63;;;22.10;51.80;;;;;;5022706;28;20469;-67
2021/01/06 00:48:21;;;;;;;16.50;12.38;;;22.10;51.80;;;;;;5021134;28;20067;-66
2021/01/06 00:50:47;;;;;;;15.13;11.93;;;22.10;51.90;;;;;;5010663;28;20030;-67
2021/01/06 00:53:23;;;;;;;16.27;11.80;;;22.10;51.90;;;;;;5008337;28;20688;-67
2021/01/06 00:55:50;;;;;;;14.65;10.65;;;22.00;51.90;;;;;;5013887;28;20038;-67
2021/01/06 00:58:18;;;;;;;14.43;11.23;;;22.00;52.00;;;;;;5005796;28;20030;-66
2021/01/06 01:00:45;;;;;;;13.50;10.38;;;22.00;52.10;;;;;;5024648;28;20026;-67
2021/01/06 01:03:13;;;;;;;14.75;10.75;;;21.90;52.10;;;;;;5013857;28;20100;-67
2021/01/06 01:05:39;;;;;;;15.82;11.70;;;21.90;52.20;;;;;;5027561;28;20191;-66
2021/01/06 01:08:08;;;;;;;14.13;10.90;;;21.90;52.20;;;;;;5007510;28;20283;-67
2021/01/06 01:10:44;;;;;;;14.77;10.85;;;21.90;52.20;;;;;;5024318;28;20033;-67
2021/01/06 01:13:17;;;;;;;13.18;10.05;;;21.90;52.20;;;;;;5014631;28;20026;-67
2021/01/06 01:15:46;;;;;;;13.45;9.98;;;21.80;52.30;;;;;;5014552;28;20025;-67
2021/01/06 01:18:18;;;;;;;14.18;9.88;;;21.80;52.20;;;;;;5005553;28;20124;-66
2021/01/06 01:20:53;;;;;;;13.43;10.18;;;21.80;52.20;;;;;;5010842;28;20037;-67
2021/01/06 01:23:21;;;;;;;14.50;10.60;;;21.80;52.30;;;;;;5008173;28;20545;-67
2021/01/06 01:25:49;;;;;;;11.48;9.20;;;21.80;52.30;;;;;;5013985;28;20094;-66
2021/01/06 01:28:18;;;;;;;13.38;9.52;;;21.70;52.30;;;;;;5005302;28;20060;-66
2021/01/06 01:30:44;;;;;;;;;;;21.80;52.40;;;;;;5019362;28;20096;-67
2021/01/06 01:33:15;;;;;;;10.43;8.05;;;21.70;52.30;;;;;;5003070;28;20268;-66
2021/01/06 01:35:43;;;;;;;11.00;8.65;;;21.70;52.30;;;;;;5012758;28;20099;-67
2021/01/06 01:38:17;;;;;;;11.48;8.60;;;21.70;52.30;;;;;;5016998;28;20041;-67
2021/01/06 01:40:45;;;;;;;12.35;9.27;;;21.70;52.30;;;;;;5013224;28;20030;-67
2021/01/06 01:43:20;;;;;;;11.43;8.63;;;21.70;52.40;;;;;;5019548;28;20029;-66
2021/01/06 01:45:50;;;;;;;11.13;8.93;;;21.60;52.40;;;;;;5007550;28;20030;-67
2021/01/06 01:48:21;;;;;;;12.88;8.88;;;21.60;52.40;;;;;;5001954;28;20143;-67
2021/01/06 01:50:48;;;;;;;11.57;8.32;;;21.60;52.40;;;;;;5015549;28;20037;-66
2021/01/06 01:53:22;;;;;;;12.25;8.95;;;21.60;52.40;;;;;;5017855;28;20029;-67
2021/01/06 01:55:51;;;;;;;10.23;8.23;;;21.60;52.40;;;;;;5006012;28;20073;-68
2021/01/06 01:58:24;;;;;;;11.43;8.65;;;21.60;52.40;;;;;;5001563;28;20050;-67
2021/01/06 02:00:53;;;;;;;11.07;8.40;;;21.60;52.40;;;;;;5026852;28;20295;-67
2021/01/06 02:03:27;;;;;;;11.65;8.95;;;21.50;52.40;;;;;;5021931;28;20056;-67
2021/01/06 02:06:00;;;;;;;10.52;8.15;;;21.50;52.90;;;;;;5007257;28;20111;-67
2021/01/06 02:08:40;;;;;;;11.68;8.30;;;21.50;52.40;;;;;;5012351;28;20060;-67
2021/01/06 02:11:17;;;;;;;11.30;8.55;;;21.50;52.50;;;;;;5010404;28;20033;-67
2021/01/06 02:13:55;;;;;;;11.82;8.77;;;21.50;52.50;;;;;;5006873;28;20029;-67
2021/01/06 02:16:35;;;;;;;11.60;8.80;;;21.50;52.50;;;;;;5007566;28;20104;-68
2021/01/06 02:19:02;;;;;;;11.57;8.13;;;21.40;52.50;;;;;;5027645;28;20040;-67
2021/01/06 02:21:28;;;;;;;11.00;8.30;;;21.40;52.50;;;;;;5009476;28;20349;-67
2021/01/06 02:23:57;;;;;;;10.98;8.40;;;21.40;52.50;;;;;;5006185;28;20022;-67
2021/01/06 02:26:25;;;;;;;10.20;8.13;;;21.40;53.00;;;;;;5022889;28;20040;-67
2021/01/06 02:28:52;;;;;;;9.83;7.53;;;21.40;52.50;;;;;;5014345;28;20709;-67
2021/01/06 02:31:18;;;;;;;10.40;7.85;;;21.40;52.60;;;;;;5016560;28;20381;-67
2021/01/06 02:33:44;;;;;;;11.10;8.48;;;21.40;52.60;;;;;;5014700;28;20114;-67
2021/01/06 02:36:10;;;;;;;10.93;8.00;;;21.30;52.50;;;;;;5016703;28;20256;-68
2021/01/06 02:38:36;;;;;;;10.32;7.95;;;21.30;52.60;;;;;;5006220;28;20037;-67
2021/01/06 02:41:02;;;;;;;11.43;8.02;;;21.30;52.60;;;;;;5008727;28;20143;-67
2021/01/06 02:43:28;;;;;;;10.57;7.70;;;21.30;52.60;;;;;;5032933;28;20026;-67
2021/01/06 02:45:55;;;;;;;9.52;7.65;;;21.20;52.60;;;;;;5019693;28;20398;-67
2021/01/06 02:48:22;;;;;;;10.57;8.07;;;21.30;52.60;;;;;;5006027;28;20033;-67
2021/01/06 02:50:51;;;;;;;9.38;7.15;;;21.30;52.60;;;;;;5020723;28;20029;-67
2021/01/06 02:53:27;;;;;;;11.10;8.00;;;21.20;52.60;;;;;;5011375;28;20044;-67
2021/01/06 02:55:53;;;;;;;11.00;8.00;;;21.20;52.60;;;;;;5004240;28;20045;-67
2021/01/06 02:58:22;;;;;;;10.52;7.63;;;21.20;52.60;;;;;;5006058;28;20025;-67
2021/01/06 03:00:49;;;;;;;9.80;7.30;;;21.20;52.60;;;;;;5018684;28;20021;-67
2021/01/06 03:03:17;;;;;;;10.68;8.02;;;21.20;52.60;;;;;;5018271;28;20561;-66
2021/01/06 03:05:48;;;;;;;9.30;7.32;;;21.20;52.60;;;;;;5020829;28;20022;-67
2021/01/06 03:08:15;;;;;;;11.30;8.07;;;21.20;52.60;;;;;;5011473;28;20033;-67
2021/01/06 03:10:41;;;;;;;10.88;8.40;;;21.10;52.50;;;;;;5010412;28;20022;-67
2021/01/06 03:13:07;;;;;;;10.45;7.82;;;21.10;52.60;;;;;;5002185;28;20043;-67
2021/01/06 03:15:33;;;;;;;10.20;7.63;;;21.10;52.70;;;;;;5019582;28;20030;-66
2021/01/06 03:17:59;;;;;;;10.23;7.35;;;21.10;53.20;;;;;;5011233;28;20373;-67
2021/01/06 03:20:32;;;;;;;9.65;7.53;;;21.10;52.60;;;;;;5012182;28;20240;-67
2021/01/06 03:23:07;;;;;;;9.80;7.70;;;21.10;52.60;;;;;;5010430;28;20034;-67
2021/01/06 03:25:35;;;;;;;9.48;7.82;;;21.10;52.70;;;;;;5005563;28;20033;-67
2021/01/06 03:28:01;;;;;;;10.25;7.88;;;21.10;52.70;;;;;;5010133;28;20061;-67
2021/01/06 03:30:30;;;;;;;10.10;7.40;;;21.10;52.60;;;;;;5013472;28;20041;-67
2021/01/06 03:33:09;;;;;;;10.00;7.60;;;21.10;52.60;;;;;;5019102;28;20128;-67
2021/01/06 03:36:11;;;;;;;9.53;7.00;;;21.00;52.60;;;;;;5014533;28;20033;-67
2021/01/06 03:38:41;;;;;;;10.07;7.80;;;21.00;52.60;;;;;;5005182;28;20288;-67
2021/01/06 03:41:07;;;;;;;;;;;21.00;52.60;;;;;;5005334;28;20106;-67
2021/01/06 03:43:40;;;;;;;9.50;7.18;;;21.00;52.60;;;;;;5004437;28;19913;-66
2021/01/06 03:46:26;;;;;;;9.52;6.93;;;21.00;52.60;;;;;;5005465;28;20092;-67
2021/01/06 03:49:01;;;;;;;9.98;7.43;;;21.00;52.60;;;;;;5012000;28;20037;-67
2021/01/06 03:51:56;;;;;;;9.77;7.75;;;21.00;52.60;;;;;;5016352;28;20463;-67
2021/01/06 03:54:51;;;;;;;9.77;7.45;;;20.90;52.60;;;;;;5018645;28;20053;-67
2021/01/06 03:57:18;;;;;;;9.45;7.28;;;20.90;52.60;;;;;;5022332;28;20033;-67
2021/01/06 03:59:48;;;;;;;9.73;7.28;;;20.90;53.10;;;;;;5014164;28;20022;-67
2021/01/06 04:02:15;;;;;;;9.35;7.20;;;20.90;52.60;;;;;;5004157;28;20074;-67
2021/01/06 04:04:50;;;;;;;9.13;7.15;;;20.90;52.60;;;;;;5023660;28;20048;-68
2021/01/06 04:07:40;;;;;;;9.70;7.13;;;20.90;52.60;;;;;;5027030;28;20053;-66
2021/01/06 04:10:28;;;;;;;9.48;6.80;;;20.90;52.60;;;;;;5011095;28;20034;-67
2021/01/06 04:12:53;;;;;;;9.75;7.75;;;20.90;52.60;;;;;;5010734;28;20095;-67
2021/01/06 04:15:19;;;;;;;9.68;7.18;;;20.80;52.60;;;;;;5020556;28;20026;-67
2021/01/06 04:17:48;;;;;;;9.20;7.07;;;20.80;52.60;;;;;;5014915;28;20033;-67
2021/01/06 04:20:34;;;;;;;9.20;7.13;;;20.80;52.60;;;;;;5022786;28;20099;-67
2021/01/06 04:23:02;;;;;;;9.65;7.20;;;20.80;52.60;;;;;;5025982;28;20021;-67
2021/01/06 04:25:29;;;;;;;8.90;6.65;;;20.80;52.60;;;;;;5022686;28;20029;-67
2021/01/06 04:27:59;;;;;;;9.40;7.55;;;20.80;52.60;;;;;;5006539;28;20765;-67
2021/01/06 04:30:33;;;;;;;8.40;6.82;;;20.80;52.60;;;;;;5020380;28;20025;-67
2021/01/06 04:33:03;;;;;;;9.90;7.18;;;20.80;52.70;;;;;;5025534;28;20033;-67
2021/01/06 04:35:30;;;;;;;9.60;7.15;;;20.70;52.60;;;;;;5014132;28;20509;-67
2021/01/06 04:37:58;;;;;;;8.27;6.70;;;20.80;52.70;;;;;;5022884;28;20033;-67
2021/01/06 04:40:26;;;;;;;8.70;6.75;;;20.70;52.70;;;;;;5007854;28;20033;-67
2021/01/06 04:42:59;;;;;;;8.90;7.30;;;20.70;52.70;;;;;;5006371;28;20349;-67
2021/01/06 04:45:32;;;;;;;8.55;6.40;;;20.70;52.70;;;;;;5012039;28;20045;-67
2021/01/06 04:48:15;;;;;;;8.38;6.45;;;20.70;52.80;;;;;;5004889;28;20060;-67
2021/01/06 04:50:59;;;;;;;9.63;6.70;;;20.70;52.80;;;;;;5011716;28;20026;-67
2021/01/06 04:53:43;;;;;;;8.30;6.45;;;20.70;52.80;;;;;;5023005;28;20025;-67
2021/01/06 04:56:34;;;;;;;9.57;6.15;;;20.70;52.80;;;;;;5008117;28;20386;-67
2021/01/06 04:59:28;;;;;;;7.95;5.95;;;20.70;52.90;;;;;;5012620;28;20026;-67
2021/01/06 05:01:53;;;;;;;7.97;6.05;;;20.70;52.80;;;;;;5011703;28;20025;-67
2021/01/06 05:04:58;;;;;;;8.82;6.68;;;20.70;52.90;;;;;;5013078;28;20492;-67
2021/01/06 05:07:51;;;;;;;8.57;6.40;;;20.70;53.00;;;;;;5008090;28;20033;-67
2021/01/06 05:10:42;;;;;;;8.68;6.07;;;20.70;53.00;;;;;;5014287;28;20041;-67
2021/01/06 05:13:39;;;;;;;8.45;6.22;;;20.70;53.00;;;;;;5011738;28;20048;-67
2021/01/06 05:16:14;;;;;;;9.02;6.43;;;20.70;53.00;;;;;;5026375;28;20029;-67
2021/01/06 05:18:40;;;;;;;8.32;6.43;;;20.70;53.00;;;;;;5018537;28;20360;-67
2021/01/06 05:21:19;;;;;;;7.75;6.40;;;20.70;53.00;;;;;;5006753;28;20030;-67
2021/01/06 05:23:49;;;;;;;8.50;6.55;;;20.60;53.00;;;;;;5017251;28;20037;-67
2021/01/06 05:26:15;;;;;;;8.85;5.90;;;20.60;53.00;;;;;;5007588;28;20036;-67
2021/01/06 05:28:43;;;;;;;8.13;6.22;;;20.60;53.00;;;;;;5010060;28;20037;-67
2021/01/06 05:31:09;;;;;;;8.30;6.43;;;20.60;53.30;;;;;;5022414;28;20029;-67
2021/01/06 05:33:40;;;;;;;7.35;5.72;;;20.60;53.00;;;;;;5019389;28;20053;-67
2021/01/06 05:36:06;;;;;;;8.35;6.20;;;20.60;53.10;;;;;;5019412;28;20037;-67
2021/01/06 05:38:32;;;;;;;7.68;6.10;;;20.60;53.10;;;;;;5017850;28;20076;-67
2021/01/06 05:40:58;;;;;;;7.32;6.00;;;20.60;53.10;;;;;;5005566;28;20026;-67
2021/01/06 05:43:29;;;;;;;7.43;5.57;;;20.60;53.10;;;;;;5006627;28;20086;-67
2021/01/06 05:46:05;;;;;;;8.15;5.97;;;20.60;53.10;;;;;;5014983;28;20056;-67
2021/01/06 05:48:49;;;;;;;7.60;5.68;;;20.60;53.10;;;;;;5017672;28;20038;-67
2021/01/06 05:51:18;;;;;;;7.57;5.90;;;20.60;53.10;;;;;;5006854;28;20045;-67
2021/01/06 05:54:02;;;;;;;7.28;5.47;;;20.60;53.10;;;;;;5006960;28;20034;-67
2021/01/06 05:56:34;;;;;;;7.43;5.40;;;20.60;53.10;;;;;;5020949;28;20037;-67
2021/01/06 05:59:17;;;;;;;6.68;5.32;;;20.60;53.10;;;;;;5016448;28;20022;-66
2021/01/06 06:01:46;;;;;;;7.00;5.28;;;20.50;53.10;;;;;;5006088;28;20058;-67
2021/01/06 06:04:32;;;;;;;6.68;5.38;;;20.60;53.20;;;;;;5005991;28;20079;-67
2021/01/06 06:07:12;;;;;;;9.00;5.88;;;20.60;53.10;;;;;;5020268;28;20089;-68
2021/01/06 06:09:52;;;;;;;6.85;5.43;;;20.60;53.20;;;;;;5022972;28;20029;-67
2021/01/06 06:12:45;;;;;;;6.43;5.00;;;20.50;53.10;;;;;;5010461;28;20038;-68
2021/01/06 06:15:42;;;;;;;7.40;5.60;;;20.60;53.20;;;;;;5022583;28;20040;-68
2021/01/06 06:18:19;;;;;;;7.30;5.30;;;20.50;53.10;;;;;;5022477;28;20040;-68
2021/01/06 06:20:51;;;;;;;6.70;5.45;;;20.50;53.20;;;;;;5016170;28;20511;-69
2021/01/06 06:23:47;;;;;;;6.90;5.32;;;20.50;53.10;;;;;;5007955;28;20048;-68
2021/01/06 06:26:39;;;;;;;6.40;5.05;;;20.50;53.20;;;;;;5014302;28;20471;-68
2021/01/06 06:29:15;;;;;;;6.47;4.88;;;20.50;53.20;;;;;;5004247;28;20044;-68
2021/01/06 06:31:51;;;;;;;7.03;5.07;;;20.50;53.20;;;;;;5004753;28;20092;-68
2021/01/06 06:34:25;;;;;;;6.90;5.38;;;20.50;53.20;;;;;;5003830;28;20080;-69
2021/01/06 06:36:50;;;;;;;6.28;4.75;;;20.50;53.20;;;;;;5015934;28;20140;-69
2021/01/06 06:39:29;;;;;;;6.95;5.13;;;20.50;53.20;;;;;;5020004;28;20052;-69
2021/01/06 06:42:20;;;;;;;6.75;5.30;;;20.50;53.20;;;;;;5004403;28;20097;-68
2021/01/06 06:45:11;;;;;;;6.80;4.95;;;20.50;53.20;;;;;;5019562;28;20042;-68
2021/01/06 06:47:50;;;;;;;6.28;4.68;;;20.50;53.20;;;;;;5019055;28;20026;-68
2021/01/06 06:50:43;;;;;;;6.68;4.70;;;20.50;53.20;;;;;;5021742;28;20029;-68
2021/01/06 06:53:27;;;;;;;6.07;5.00;;;20.50;53.20;;;;;;5016515;28;20453;-68
2021/01/06 06:56:22;;;;;;;6.32;4.78;;;20.50;53.30;;;;;;5007089;28;20107;-68
2021/01/06 06:59:07;;;;;;;6.03;4.78;;;20.40;53.20;;;;;;5014214;28;20030;-68
2021/01/06 07:01:38;;;;;;;6.53;4.63;;;20.40;53.20;;;;;;5003195;28;20022;-67
2021/01/06 07:04:13;;;;;;;6.07;4.63;;;20.50;53.20;;;;;;5009949;28;20140;-69
2021/01/06 07:06:39;;;;;;;6.57;4.88;;;20.40;53.20;;;;;;5009131;28;20034;-68
2021/01/06 07:09:06;;;;;;;5.88;4.65;;;20.40;53.20;;;;;;5005086;28;20137;-68
2021/01/06 07:11:46;;;;;;;6.00;4.38;;;20.40;53.20;;;;;;5009316;28;20065;-68
2021/01/06 07:14:28;;;;;;;7.07;4.82;;;20.40;53.20;;;;;;5015547;28;20514;-68
2021/01/06 07:16:53;;;;;;;6.47;4.65;;;20.40;53.20;;;;;;5004720;28;20475;-68
2021/01/06 07:19:27;;;;;;;5.85;4.53;;;20.40;53.20;;;;;;5008137;28;20030;-68
2021/01/06 07:22:14;;;;;;;5.85;4.35;;;20.40;53.20;;;;;;5015002;28;20037;-68
2021/01/06 07:24:40;;;;;;;6.35;4.60;;;20.40;53.20;;;;;;5005438;28;20543;-68
2021/01/06 07:27:06;;;;;;;5.75;4.50;;;20.40;53.20;;;;;;5007203;28;20077;-68
2021/01/06 07:29:47;;;;;;;6.15;4.60;;;20.40;53.20;;;;;;5004702;28;20109;-68
2021/01/06 07:32:14;;;;;;;5.95;4.40;;;20.40;53.20;;;;;;5006731;28;20084;-68
2021/01/06 07:34:55;;;;;;;5.88;4.20;;;20.40;53.30;;;;;;5014532;28;20066;-68
2021/01/06 07:37:44;;;;;;;5.80;4.30;;;20.40;53.30;;;;;;5021118;28;20030;-69
2021/01/06 07:40:16;;;;;;;5.60;4.10;;;20.40;53.30;;;;;;5005314;28;20030;-69
2021/01/06 07:42:46;;;;;;;6.78;4.72;;;20.40;53.30;;;;;;5006484;28;20378;-69
2021/01/06 07:45:28;;;;;;;5.95;4.53;;;20.40;53.30;;;;;;5012699;28;20132;-68
2021/01/06 07:48:13;;;;;;;5.60;4.22;;;20.40;53.30;;;;;;5007406;28;20044;-68
2021/01/06 07:50:40;;;;;;;5.20;4.10;;;20.40;53.20;;;;;;5017513;28;20119;-68
2021/01/06 07:53:14;;;;;;;6.25;4.50;;;20.40;53.20;;;;;;5012104;28;20085;-69
2021/01/06 07:56:03;;;;;;;5.75;4.38;;;20.30;53.20;;;;;;5015691;28;20052;-68
2021/01/06 07:58:40;;;;;;;5.23;4.07;;;20.30;53.30;;;;;;5024199;28;20397;-69
2021/01/06 08:01:17;;;;;;;5.53;4.03;;;20.40;53.30;;;;;;5018126;28;20492;-69
2021/01/06 08:03:49;;;;;;;6.13;4.72;;;20.30;53.20;;;;;;5006158;28;20608;-69
2021/01/06 08:06:20;;;;;;;5.93;4.18;;;20.30;53.20;;;;;;5008472;28;20030;-69
2021/01/06 08:08:49;;;;;;;5.38;4.00;;;20.30;53.20;;;;;;5019713;28;20033;-69
2021/01/06 08:11:17;;;;;;;6.05;3.92;;;20.30;53.20;;;;;;5020562;28;20030;-69
2021/01/06 08:13:49;;;;;;;5.95;3.90;;;20.30;53.20;;;;;;5014631;28;20068;-68
2021/01/06 08:16:37;;;;;;;5.55;4.00;;;20.30;53.20;;;;;;5011062;28;20113;-69
2021/01/06 08:19:12;;;;;;;5.25;4.00;;;20.30;53.30;;;;;;5016133;28;20028;-69
2021/01/06 08:22:00;;;;;;;5.00;3.80;;;20.30;53.20;;;;;;5009321;28;20025;-68
2021/01/06 08:25:01;;;;;;;5.03;4.00;;;20.30;53.20;;;;;;5020549;28;20022;-69
2021/01/06 08:27:36;;;;;;;5.35;4.00;;;20.30;53.30;;;;;;4992250;28;20041;-69
2021/01/06 08:30:10;;;;;;;5.75;4.22;;;20.30;53.30;;;;;;5018786;28;20026;-69
2021/01/06 08:32:36;;;;;;;5.40;3.92;;;20.30;53.20;;;;;;5010360;28;20131;-69
2021/01/06 08:35:07;;;;;;;5.07;3.90;;;20.30;53.20;;;;;;5011172;28;20168;-69
2021/01/06 08:37:37;;;;;;;6.18;4.07;;;20.30;53.30;;;;;;5022524;28;20026;-70
2021/01/06 08:40:22;;;;;;;;;;;20.20;53.20;;;;;;5009951;28;20488;-69
2021/01/06 08:42:48;;;;;;;5.10;3.40;;;20.30;53.30;;;;;;5005492;28;20383;-69
2021/01/06 08:45:31;;;;;;;5.45;3.70;;;20.30;53.20;;;;;;5021397;28;20052;-69
2021/01/06 08:48:11;;;;;;;4.95;3.78;;;20.30;53.30;;;;;;5017237;28;20412;-68
2021/01/06 08:50:39;;;;;;;5.22;3.83;;;20.20;53.20;;;;;;5012505;28;20022;-69
2021/01/06 08:53:06;;;;;;;5.47;3.67;;;20.20;53.20;;;;;;5013809;28;20115;-71
2021/01/06 08:55:38;;;;;;;5.03;3.58;;;20.30;53.20;;;;;;5010650;28;20055;-70
2021/01/06 08:58:12;;;;;;;4.88;3.75;;;20.20;53.20;;;;;;5024839;28;20894;-71
2021/01/06 09:00:43;;;;;;;5.25;3.78;;;20.20;53.20;;;;;;5020348;28;20145;-68
2021/01/06 09:03:23;;;;;;;4.35;3.33;;;20.20;53.20;;;;;;5011995;28;20064;-69
2021/01/06 09:05:54;;;;;;;4.85;3.55;;;20.20;53.20;;;;;;5025450;28;20061;-69
2021/01/06 09:08:42;;;;;;;4.70;3.63;;;20.20;53.20;;;;;;5017969;28;20053;-70
2021/01/06 09:11:07;;;;;;;4.50;3.30;;;20.20;53.20;;;;;;5017185;28;20033;-70
2021/01/06 09:13:57;;;;;;;4.82;3.47;;;20.20;53.20;;;;;;5016991;28;20591;-71
2021/01/06 09:16:39;;;;;;;5.25;3.55;;;20.20;53.20;;;;;;5008851;28;20017;-72
2021/01/06 09:19:16;;;;;;;4.60;3.50;;;20.20;53.30;;;;;;5014903;28;20026;-72
2021/01/06 09:21:43;;;;;;;4.47;3.45;;;20.20;53.30;;;;;;5013749;28;20551;-72
2021/01/06 09:24:19;;;;;;;4.00;3.38;;;20.20;53.20;;;;;;5008869;28;20117;-71
2021/01/06 09:26:46;;;;;;;4.43;2.90;;;20.20;53.20;;;;;;5014760;28;20033;-66
2021/01/06 09:29:16;;;;;;;4.93;3.53;;;20.20;53.30;;;;;;5004886;28;20041;-64
2021/01/06 09:31:46;;;;;;;4.18;3.17;;;20.20;53.80;;;;;;5017958;28;20111;-67
2021/01/06 09:34:15;;;;;;;5.40;3.80;;;20.20;53.30;;;;;;5025280;28;20037;-65
2021/01/06 09:36:41;;;;;;;4.78;3.50;;;20.20;53.30;;;;;;5009958;28;20257;-65
2021/01/06 09:39:16;;;;;;;5.43;3.47;;;20.20;53.30;;;;;;5014533;28;20029;-63
2021/01/06 09:41:42;;;;;;;4.47;3.38;;;20.20;53.30;;;;;;5006530;28;20069;-65
2021/01/06 09:44:09;;;;;;;4.82;3.65;;;20.20;53.30;;;;;;5009504;28;20159;-63
2021/01/06 09:46:34;;;;;;;4.80;3.40;;;20.20;53.30;;;;;;5006214;28;20045;-64
2021/01/06 09:49:07;;;;;;;5.05;3.50;;;20.10;53.20;;;;;;5011987;28;20030;-68
2021/01/06 09:51:34;;;;;;;5.22;3.35;;;20.20;53.30;;;;;;5024129;28;20037;-64
2021/01/06 09:54:03;;;;;;;4.50;3.30;;;20.20;53.30;;;;;;5023117;28;20471;-64
2021/01/06 09:56:30;;;;;;;;;;;20.20;53.30;;;;;;5026965;28;20345;-65
2021/01/06 09:58:57;;;;;;;4.18;2.88;;;20.20;53.30;;;;;;5017348;28;20318;-63
2021/01/06 10:01:29;;;;;;;4.35;3.30;;;20.20;53.30;;;;;;5008075;28;20416;-65
2021/01/06 10:03:58;;;;;;;4.22;3.33;;;20.20;53.30;;;;;;5008500;28;20036;-64
2021/01/06 10:06:42;;;;;;;4.15;3.08;;;20.10;53.20;;;;;;5014003;28;20022;-66
2021/01/06 10:09:20;;;;;;;4.55;3.15;;;20.20;53.30;;;;;;5006237;28;20052;-66
2021/01/06 10:12:21;;;;;;;4.90;3.35;;;20.20;53.30;;;;;;5021460;28;20021;-66
2021/01/06 10:15:13;;;;;;;4.43;3.10;;;20.10;53.30;;;;;;5003901;28;20069;-64
2021/01/06 10:17:47;;;;;;;4.60;3.08;;;20.10;53.20;;;;;;5005675;28;20049;-68
2021/01/06 10:20:46;;;;;;;4.00;3.20;;;20.10;53.30;;;;;;5012244;28;20460;-64
2021/01/06 10:23:29;;;;;;;3.65;2.63;;;20.10;53.20;;;;;;5007374;28;20129;-67
2021/01/06 10:26:16;;;;;;;4.90;3.28;;;20.10;53.30;;;;;;5016426;28;20106;-63
2021/01/06 10:28:45;;;;;;;4.00;3.00;;;20.10;53.30;;;;;;5003632;28;20034;-66
2021/01/06 10:31:16;;;;;;;4.47;3.17;;;20.10;53.30;;;;;;5004378;28;20026;-66
2021/01/06 10:34:06;;;;;;;4.30;3.10;;;20.10;53.30;;;;;;5006528;28;20476;-68
2021/01/06 10:37:04;;;;;;;4.10;2.92;;;20.10;53.30;;;;;;5008595;28;20095;-65
2021/01/06 10:39:46;;;;;;;3.80;2.90;;;20.10;53.30;;;;;;5005430;28;20042;-66
2021/01/06 10:42:17;;;;;;;5.03;3.45;;;20.10;53.30;;;;;;5007799;28;20033;-66
2021/01/06 10:44:52;;;;;;;4.00;2.85;;;20.10;53.20;;;;;;5010912;28;20041;-66
2021/01/06 10:47:30;;;;;;;3.80;2.83;;;20.10;53.30;;;;;;5021201;28;20030;-64
2021/01/06 10:50:18;;;;;;;4.20;2.90;;;20.10;53.30;;;;;;5014021;28;20033;-66
2021/01/06 10:53:06;;;;;;;4.57;3.40;;;20.10;53.20;;;;;;5019015;28;20036;-65
2021/01/06 10:55:46;;;;;;;4.15;2.97;;;20.10;53.30;;;;;;5015840;28;20152;-67
2021/01/06 10:58:16;;;;;;;4.10;2.80;;;20.10;53.30;;;;;;5015495;28;20061;-67
2021/01/06 11:01:04;;;;;;;4.30;2.97;;;20.10;53.30;;;;;;5008492;28;20049;-68
2021/01/06 11:03:57;;;;;;;4.03;2.97;;;20.10;53.20;;;;;;5016517;28;20030;-67
2021/01/06 11:06:37;;;;;;;3.88;2.60;;;20.10;53.30;;;;;;5020383;28;20067;-67
2021/01/06 11:09:11;;;;;;;4.28;2.83;;;20.10;53.30;;;;;;5012985;28;20087;-66
2021/01/06 11:12:19;;;;;;;3.63;2.88;;;20.10;53.30;;;;;;5022255;28;20055;-67
2021/01/06 11:15:05;;;;;;;4.00;2.78;;;20.10;53.30;;;;;;5013741;28;20103;-65
2021/01/06 11:17:38;;;;;;;3.80;2.90;;;20.10;53.30;;;;;;5031605;28;20072;-67
2021/01/06 11:20:34;;;;;;;3.53;2.45;;;20.10;53.30;;;;;;5011852;28;20041;-68
2021/01/06 11:23:35;;;;;;;3.90;2.83;;;20.00;53.20;;;;;;5009243;28;20026;-65
2021/01/06 11:26:20;;;;;;;3.75;2.67;;;20.10;53.30;;;;;;5006036;28;20040;-65
2021/01/06 11:29:11;;;;;;;3.33;2.60;;;20.10;53.30;;;;;;5011511;28;20250;-67
2021/01/06 11:31:50;;;;;;;4.28;2.78;;;20.10;53.30;;;;;;5006769;28;20058;-68
2021/01/06 11:34:15;;;;;;;3.95;2.58;;;20.10;53.30;;;;;;5006357;28;20049;-66
2021/01/06 11:36:46;;;;;;;3.75;2.65;;;20.10;53.20;;;;;;5007352;28;20184;-67
2021/01/06 11:39:43;;;;;;;4.15;2.85;;;20.00;53.20;;;;;;5006590;28;20026;-67
2021/01/06 11:42:13;;;;;;;4.32;2.80;;;20.00;53.20;;;;;;5019135;28;20030;-65
2021/01/06 11:45:09;;;;;;;3.65;2.53;;;20.00;53.20;;;;;;5007339;28;20026;-65
2021/01/06 11:47:44;;;;;;;4.93;3.20;;;20.10;53.30;;;;;;5013127;28;20103;-67
2021/01/06 11:50:18;;;;;;;3.58;2.55;;;20.00;53.20;;;;;;5010846;28;20042;-67
2021/01/06 11:52:49;;;;;;;3.92;2.80;;;20.00;53.20;;;;;;5018456;28;20032;-68
2021/01/06 11:55:39;;;;;;;3.97;2.92;;;20.00;53.30;;;;;;5015835;28;20103;-66
2021/01/06 11:58:23;;;;;;;;;;;20.10;53.40;;;;;;5011771;28;20110;-65
2021/01/06 12:01:00;;;;;;;3.92;2.65;;;20.20;53.50;;;;;;5000541;28;19989;-68
2021/01/06 12:03:44;;;;;;;3.63;2.45;;;20.30;53.30;;;;;;5001094;28;20413;-69
2021/01/06 12:06:51;;;;;;;3.55;2.47;;;20.30;53.20;;;;;;5000335;28;20585;-66
2021/01/06 12:09:26;;;;;;;4.03;2.63;;;20.40;53.30;;;;;;5012905;28;20064;-68
2021/01/06 12:12:04;;;;;;;3.38;2.40;;;20.40;53.20;;;;;;5009400;28;20034;-66
2021/01/06 12:14:42;;;;;;;3.40;2.35;;;20.50;53.20;;;;;;5014233;28;20411;-66
2021/01/06 12:17:24;;;;;;;4.32;2.88;;;20.50;53.20;;;;;;5001945;28;20568;-69
2021/01/06 12:19:58;;;;;;;3.88;2.65;;;20.60;53.20;;;;;;5009050;28;20092;-65
2021/01/06 12:22:25;;;;;;;4.70;2.47;;;20.60;53.10;;;;;;5004550;28;20465;-67
2021/01/06 12:25:04;;;;;;;3.13;2.33;;;20.60;53.10;;;;;;5005769;28;20030;-65
2021/01/06 12:27:44;;;;;;;3.47;2.45;;;20.60;53.20;;;;;;5019163;28;20042;-67
2021/01/06 12:30:10;;;;;;;4.15;2.50;;;20.60;53.30;;;;;;5003106;28;20454;-68
2021/01/06 12:33:02;;;;;;;3.65;2.20;;;20.60;53.30;;;;;;5004961;28;20086;-67
2021/01/06 12:35:42;;;;;;;3.83;2.00;;;20.60;53.40;;;;;;5004481;28;20042;-70
2021/01/06 12:38:10;;;;;;;3.67;2.40;;;20.50;53.50;;;;;;5025142;28;20025;-70
2021/01/06 12:40:57;;;;;;;3.97;2.47;;;20.50;53.50;;;;;;5006786;28;20030;-67
2021/01/06 12:43:28;;;;;;;3.28;2.28;;;20.60;53.60;;;;;;5018324;28;20029;-64
2021/01/06 12:46:02;;;;;;;3.28;2.22;;;20.50;53.50;;;;;;5017900;28;20041;-67
2021/01/06 12:48:39;;;;;;;5.13;2.65;;;20.50;53.60;;;;;;5007122;28;20041;-68
2021/01/06 12:51:16;;;;;;;4.60;2.47;;;20.50;53.60;;;;;;5011167;28;20038;-65
2021/01/06 12:53:59;;;;;;;3.65;2.15;;;20.50;53.50;;;;;;5008481;28;20056;-64
2021/01/06 12:56:40;;;;;;;3.65;2.00;;;20.60;53.70;;;;;;5006056;28;20510;-66
2021/01/06 12:59:18;;;;;;;3.90;2.50;;;20.60;53.50;;;;;;5010687;28;20026;-66
2021/01/06 13:01:59;;;;;;;3.53;2.35;;;20.70;54.00;;;;;;5007286;28;20091;-65
2021/01/06 13:04:35;;;;;;;3.90;2.22;;;20.70;53.40;;;;;;5004101;28;20034;-65
2021/01/06 13:07:13;;;;;;;3.90;2.65;;;20.70;53.40;;;;;;5013481;28;20053;-69
2021/01/06 13:10:01;;;;;;;3.80;2.30;;;20.70;53.50;;;;;;5006602;28;20030;-66
2021/01/06 13:12:44;;;;;;;3.33;2.47;;;20.70;53.60;;;;;;5024476;28;20159;-65
2021/01/06 13:15:21;;;;;;;5.20;2.38;;;20.70;53.60;;;;;;5010789;28;20139;-66
2021/01/06 13:18:17;;;;;;;3.70;2.38;;;20.70;53.60;;;;;;5011063;28;20034;-67
2021/01/06 13:20:57;;;;;;;3.53;2.25;;;20.70;53.60;;;;;;5005421;28;20423;-70
2021/01/06 13:23:44;;;;;;;4.00;2.15;;;20.70;53.70;;;;;;5009050;28;20038;-69
2021/01/06 13:26:18;;;;;;;3.67;2.13;;;20.70;54.00;;;;;;5006436;28;20052;-67
2021/01/06 13:28:51;;;;;;;3.72;2.33;;;20.70;53.90;;;;;;5004780;28;20030;-66